createdAt,value
2022-09-11T00:01:31.171Z,0.80
2022-09-11T00:03:57.871Z,0.68
2022-09-11T00:06:29.761Z,0.75
2022-09-11T00:09:02.168Z,0.70
2022-09-11T00:11:33.676Z,0.60
2022-09-11T00:14:00.396Z,0.73
2022-09-11T00:16:34.752Z,0.60
2022-09-11T00:19:08.371Z,0.75
2022-09-11T00:21:35.106Z,0.60
2022-09-11T00:24:02.326Z,0.98
2022-09-11T00:26:28.934Z,0.90
2022-09-11T00:28:55.370Z,0.90
2022-09-11T00:31:27.853Z,0.80
2022-09-11T00:33:55.049Z,0.90
2022-09-11T00:36:24.736Z,1.00
2022-09-11T00:38:51.734Z,0.68
2022-09-11T00:41:24.273Z,0.93
2022-09-11T00:44:02.919Z,0.70
2022-09-11T00:46:48.618Z,0.90
2022-09-11T00:49:23.828Z,0.70
2022-09-11T00:51:54.265Z,0.90
2022-09-11T00:54:26.719Z,0.95
2022-09-11T00:56:56.934Z,0.77
2022-09-11T00:59:27.644Z,1.23
2022-09-11T01:01:54.466Z,0.93
2022-09-11T01:04:21.851Z,1.00
2022-09-11T01:06:49.189Z,1.00
2022-09-11T01:09:15.750Z,0.80
2022-09-11T01:11:47.896Z,0.70
2022-09-11T01:14:21.388Z,0.80
2022-09-11T01:17:15.219Z,0.98
2022-09-11T01:20:01.141Z,0.90
2022-09-11T01:22:36.570Z,1.02
2022-09-11T01:25:02.866Z,0.98
2022-09-11T01:27:58.361Z,0.93
2022-09-11T01:30:34.565Z,0.93
2022-09-11T01:33:22.835Z,0.75
2022-09-11T01:36:05.029Z,0.80
2022-09-11T01:39:00.139Z,1.00
2022-09-11T01:41:40.714Z,0.88
2022-09-11T01:44:18.589Z,0.80
2022-09-11T01:46:49.796Z,0.65
2022-09-11T01:49:35.219Z,0.70
2022-09-11T01:52:06.508Z,0.73
2022-09-11T01:54:41.925Z,0.63
2022-09-11T01:57:16.205Z,0.95
2022-09-11T01:59:55.591Z,0.70
2022-09-11T02:02:29.302Z,0.70
2022-09-11T02:05:02.910Z,0.80
2022-09-11T02:07:34.355Z,0.70
2022-09-11T02:10:07.731Z,0.70
2022-09-11T02:12:41.015Z,0.80
2022-09-11T02:15:08.342Z,1.05
2022-09-11T02:17:55.032Z,1.10
2022-09-11T02:20:21.473Z,0.90
2022-09-11T02:22:49.004Z,1.00
2022-09-11T02:25:15.820Z,0.80
2022-09-11T02:27:42.642Z,0.93
2022-09-11T02:30:09.911Z,0.90
2022-09-11T02:32:47.267Z,0.93
2022-09-11T02:35:16.217Z,0.85
2022-09-11T02:37:49.450Z,0.70
2022-09-11T02:40:45.484Z,0.73
2022-09-11T02:43:29.240Z,0.80
2022-09-11T02:46:26.843Z,0.93
2022-09-11T02:49:55.911Z,1.00
2022-09-11T02:52:31.145Z,1.10
2022-09-11T02:55:08.042Z,0.65
2022-09-11T02:58:03.366Z,0.55
2022-09-11T03:00:29.904Z,0.68
2022-09-11T03:02:56.450Z,0.88
2022-09-11T03:05:23.417Z,0.70
2022-09-11T03:07:51.022Z,0.80
2022-09-11T03:10:17.693Z,0.75
2022-09-11T03:12:44.122Z,1.13
2022-09-11T03:15:11.093Z,0.63
2022-09-11T03:17:37.530Z,0.80
2022-09-11T03:20:05.315Z,0.70
2022-09-11T03:22:31.847Z,0.80
2022-09-11T03:24:58.226Z,0.90
2022-09-11T03:27:24.698Z,0.80
2022-09-11T03:29:52.126Z,0.82
2022-09-11T03:32:18.518Z,0.70
2022-09-11T03:34:47.250Z,1.00
2022-09-11T03:37:13.616Z,0.93
2022-09-11T03:39:40.014Z,0.90
2022-09-11T03:42:06.478Z,0.98
2022-09-11T03:44:32.837Z,0.70
2022-09-11T03:47:00.217Z,0.90
2022-09-11T03:49:26.582Z,0.85
2022-09-11T03:51:53.141Z,1.00
2022-09-11T03:54:20.915Z,1.00
2022-09-11T03:56:47.285Z,1.05
2022-09-11T03:59:13.747Z,1.10
2022-09-11T04:01:40.261Z,0.85
2022-09-11T04:04:06.663Z,1.00
2022-09-11T04:06:33.077Z,1.25
2022-09-11T04:08:59.457Z,1.00
2022-09-11T04:11:25.836Z,1.15
2022-09-11T04:13:52.281Z,1.10
2022-09-11T04:16:20.097Z,1.08
2022-09-11T04:18:47.781Z,1.25
2022-09-11T04:21:16.767Z,1.10
2022-09-11T04:23:44.249Z,0.93
2022-09-11T04:26:19.074Z,1.10
2022-09-11T04:28:46.232Z,1.00
2022-09-11T04:31:13.721Z,0.82
2022-09-11T04:33:40.964Z,0.82
2022-09-11T04:36:10.030Z,1.05
2022-09-11T04:38:36.711Z,0.98
2022-09-11T04:41:04.183Z,0.95
2022-09-11T04:43:31.593Z,1.13
2022-09-11T04:46:12.845Z,0.80
2022-09-11T04:48:53.941Z,1.27
2022-09-11T04:51:23.395Z,0.93
2022-09-11T04:53:57.387Z,0.82
2022-09-11T04:56:26.086Z,0.85
2022-09-11T04:59:13.251Z,1.15
2022-09-11T05:01:39.817Z,0.90
2022-09-11T05:04:06.796Z,1.15
2022-09-11T05:06:33.186Z,1.00
2022-09-11T05:09:07.999Z,0.98
2022-09-11T05:11:34.793Z,0.98
2022-09-11T05:14:01.568Z,1.10
2022-09-11T05:16:30.229Z,1.00
2022-09-11T05:18:59.347Z,1.10
2022-09-11T05:21:27.339Z,1.38
2022-09-11T05:23:58.553Z,1.10
2022-09-11T05:26:27.275Z,1.10
2022-09-11T05:28:59.133Z,1.02
2022-09-11T05:31:26.256Z,0.93
2022-09-11T05:33:54.490Z,1.05
2022-09-11T05:36:21.085Z,1.05
2022-09-11T05:38:53.944Z,1.38
2022-09-11T05:41:20.663Z,1.42
2022-09-11T05:43:47.343Z,1.05
2022-09-11T05:46:17.688Z,0.80
2022-09-11T05:48:44.712Z,1.02
2022-09-11T05:51:13.746Z,1.02
2022-09-11T05:53:40.801Z,1.60
2022-09-11T05:56:09.252Z,1.20
2022-09-11T05:58:36.517Z,1.00
2022-09-11T06:01:05.036Z,1.02
2022-09-11T06:03:34.306Z,1.20
2022-09-11T06:06:02.309Z,1.23
2022-09-11T06:08:30.897Z,1.20
2022-09-11T06:10:58.633Z,0.93
2022-09-11T06:13:41.269Z,1.20
2022-09-11T06:16:13.408Z,0.90
2022-09-11T06:18:42.737Z,1.20
2022-09-11T06:21:12.540Z,1.48
2022-09-11T06:23:39.991Z,1.27
2022-09-11T06:26:09.020Z,0.90
2022-09-11T06:28:36.233Z,1.30
2022-09-11T06:31:07.609Z,1.10
2022-09-11T06:33:36.760Z,1.60
2022-09-11T06:36:15.021Z,0.90
2022-09-11T06:38:42.799Z,1.20
2022-09-11T06:41:13.852Z,1.10
2022-09-11T06:43:45.335Z,0.90
2022-09-11T06:46:13.368Z,1.13
2022-09-11T06:48:41.130Z,1.00
2022-09-11T06:51:11.332Z,1.10
2022-09-11T06:53:38.395Z,1.10
2022-09-11T06:56:06.859Z,1.20
2022-09-11T06:58:34.279Z,1.10
2022-09-11T07:01:09.954Z,0.77
2022-09-11T07:03:46.351Z,0.90
2022-09-11T07:06:16.258Z,0.90
2022-09-11T07:09:00.689Z,0.80
2022-09-11T07:11:27.966Z,0.73
2022-09-11T07:13:54.430Z,0.70
2022-09-11T07:16:20.892Z,0.73
2022-09-11T07:18:47.783Z,0.88
2022-09-11T07:21:18.628Z,0.70
2022-09-11T07:23:50.988Z,0.70
2022-09-11T07:26:18.431Z,0.77
2022-09-11T07:28:44.910Z,0.70
2022-09-11T07:31:20.885Z,0.90
2022-09-11T07:33:49.081Z,0.75
2022-09-11T07:36:37.777Z,0.70
2022-09-11T07:39:04.347Z,0.80
2022-09-11T07:41:31.617Z,0.85
2022-09-11T07:44:03.659Z,0.95
2022-09-11T07:46:33.320Z,1.00
2022-09-11T07:49:01.951Z,1.05
2022-09-11T07:51:28.661Z,1.23
2022-09-11T07:53:57.869Z,1.10
2022-09-11T07:56:41.134Z,1.20
2022-09-11T07:59:11.662Z,1.48
2022-09-11T08:01:38.098Z,0.98
2022-09-11T08:04:10.527Z,1.10
2022-09-11T08:06:41.376Z,1.10
2022-09-11T08:09:11.557Z,1.05
2022-09-11T08:11:41.086Z,1.25
2022-09-11T08:14:07.875Z,1.08
2022-09-11T08:16:36.243Z,1.00
2022-09-11T08:19:22.619Z,1.05
2022-09-11T08:21:50.178Z,0.98
2022-09-11T08:24:17.729Z,0.85
2022-09-11T08:26:48.712Z,0.98
2022-09-11T08:29:15.586Z,1.10
2022-09-11T08:31:42.031Z,1.13
2022-09-11T08:34:10.213Z,1.20
2022-09-11T08:36:36.747Z,0.95
2022-09-11T08:39:09.136Z,1.10
2022-09-11T08:41:53.662Z,1.25
2022-09-11T08:44:23.942Z,1.02
2022-09-11T08:47:06.549Z,1.30
2022-09-11T08:49:42.937Z,1.27
2022-09-11T08:52:14.149Z,1.20
2022-09-11T08:54:50.538Z,1.15
2022-09-11T08:57:24.830Z,1.30
2022-09-11T09:00:18.657Z,1.38
2022-09-11T09:02:57.310Z,1.48
2022-09-11T09:05:47.531Z,1.30
2022-09-11T09:09:01.171Z,1.30
2022-09-11T09:11:30.669Z,1.20
2022-09-11T09:14:41.996Z,1.25
2022-09-11T09:17:16.895Z,1.13
2022-09-11T09:20:16.433Z,1.00
2022-09-11T09:23:01.878Z,1.05
2022-09-11T09:25:38.201Z,1.02
2022-09-11T09:28:25.469Z,1.30
2022-09-11T09:31:01.777Z,0.95
2022-09-11T09:33:45.845Z,1.30
2022-09-11T09:36:20.847Z,1.08
2022-09-11T09:39:14.125Z,1.20
2022-09-11T09:41:54.374Z,1.15
2022-09-11T09:44:57.967Z,1.10
2022-09-11T09:47:24.429Z,1.20
2022-09-11T09:49:52.376Z,1.20
2022-09-11T09:52:26.787Z,1.35
2022-09-11T09:54:56.991Z,1.50
2022-09-11T09:57:26.387Z,1.40
2022-09-11T10:00:05.459Z,1.33
2022-09-11T10:02:58.596Z,1.30
2022-09-11T10:05:41.474Z,1.35
2022-09-11T10:08:37.651Z,1.50
2022-09-11T10:11:06.689Z,1.15
2022-09-11T10:13:55.484Z,1.30
2022-09-11T10:16:25.766Z,1.15
2022-09-11T10:18:53.471Z,1.35
2022-09-11T10:21:33.333Z,1.10
2022-09-11T10:24:30.075Z,1.20
2022-09-11T10:26:59.102Z,1.20
2022-09-11T10:29:30.009Z,1.25
2022-09-11T10:32:05.487Z,1.42
2022-09-11T10:34:40.467Z,1.10
2022-09-11T10:37:15.175Z,1.27
2022-09-11T10:39:46.369Z,1.10
2022-09-11T10:42:27.541Z,1.20
2022-09-11T10:45:05.799Z,1.20
2022-09-11T10:47:37.328Z,1.05
2022-09-11T10:50:34.455Z,0.90
2022-09-11T10:53:19.717Z,0.90
2022-09-11T10:56:00.129Z,0.80
2022-09-11T10:58:42.351Z,0.85
2022-09-11T11:01:09.966Z,0.80
2022-09-11T11:03:36.800Z,0.80
2022-09-11T11:06:34.865Z,0.93
2022-09-11T11:09:47.972Z,1.25
2022-09-11T11:12:31.949Z,1.10
2022-09-11T11:15:30.272Z,1.05
2022-09-11T11:18:12.211Z,1.05
2022-09-11T11:20:56.991Z,1.10
2022-09-11T11:23:54.365Z,1.20
2022-09-11T11:26:23.926Z,1.17
2022-09-11T11:29:16.154Z,1.00
2022-09-11T11:32:01.450Z,1.20
2022-09-11T11:35:09.486Z,0.80
2022-09-11T11:37:48.702Z,0.80
2022-09-11T11:40:46.178Z,0.93
2022-09-11T11:45:57.519Z,0.60
2022-09-11T11:48:36.937Z,0.80
2022-09-11T11:51:07.555Z,0.70
2022-09-11T11:53:44.921Z,0.52
2022-09-11T11:56:49.326Z,0.85
2022-09-11T11:59:45.730Z,0.70
2022-09-11T12:02:21.930Z,0.80
2022-09-11T12:05:05.461Z,0.80
2022-09-11T12:07:38.922Z,0.90
2022-09-11T12:10:08.468Z,0.75
2022-09-11T12:12:47.652Z,0.98
2022-09-11T12:15:19.734Z,0.73
2022-09-11T12:18:23.897Z,0.80
2022-09-11T12:20:51.341Z,0.80
2022-09-11T12:23:30.027Z,0.77
2022-09-11T12:26:24.888Z,0.98
2022-09-11T12:29:20.357Z,0.77
2022-09-11T12:31:51.801Z,0.68
2022-09-11T12:34:39.245Z,0.68
2022-09-11T12:37:12.520Z,0.70
2022-09-11T12:39:50.363Z,0.65
2022-09-11T12:42:22.966Z,0.68
2022-09-11T12:44:49.290Z,0.60
2022-09-11T12:47:24.240Z,0.70
2022-09-11T12:49:55.052Z,0.68
2022-09-11T12:52:30.387Z,0.80
2022-09-11T12:55:04.406Z,0.60
2022-09-11T12:57:38.258Z,0.60
2022-09-11T13:00:41.231Z,0.60
2022-09-11T13:03:19.366Z,0.50
2022-09-11T13:06:07.586Z,0.68
2022-09-11T13:08:59.960Z,0.40
2022-09-11T13:11:38.338Z,0.70
2022-09-11T13:14:30.843Z,0.70
2022-09-11T13:17:15.110Z,0.60
2022-09-11T13:19:43.627Z,0.63
2022-09-11T13:22:23.826Z,0.63
2022-09-11T13:24:51.464Z,0.50
2022-09-11T13:27:28.125Z,0.52
2022-09-11T13:29:58.100Z,0.50
2022-09-11T13:32:35.912Z,0.60
2022-09-11T13:35:10.943Z,0.45
2022-09-11T13:37:58.363Z,0.40
2022-09-11T13:40:35.153Z,0.50
2022-09-11T13:43:02.334Z,0.50
2022-09-11T13:45:28.856Z,0.50
2022-09-11T13:47:58.326Z,0.38
2022-09-11T13:50:25.198Z,0.50
2022-09-11T13:52:53.894Z,0.57
2022-09-11T13:55:27.059Z,0.30
2022-09-11T13:58:02.842Z,0.60
2022-09-11T14:00:50.482Z,0.43
2022-09-11T14:03:22.209Z,0.50
2022-09-11T14:05:51.267Z,0.50
2022-09-11T14:08:27.014Z,0.40
2022-09-11T14:10:56.913Z,0.40
2022-09-11T14:13:35.622Z,0.40
2022-09-11T14:16:15.416Z,0.30
2022-09-11T14:19:11.179Z,0.52
2022-09-11T14:21:40.497Z,0.50
2022-09-11T14:24:26.511Z,0.40
2022-09-11T14:26:58.836Z,0.40
2022-09-11T14:29:36.770Z,0.50
2022-09-11T14:32:29.724Z,0.40
2022-09-11T14:34:58.701Z,0.40
2022-09-11T14:37:28.142Z,0.47
2022-09-11T14:40:18.708Z,0.50
2022-09-11T14:42:47.398Z,0.55
2022-09-11T14:45:28.106Z,0.47
2022-09-11T14:47:54.542Z,0.60
2022-09-11T14:50:21.291Z,0.47
2022-09-11T14:53:01.743Z,0.52
2022-09-11T14:55:28.255Z,0.40
2022-09-11T14:57:54.737Z,0.40
2022-09-11T15:00:21.479Z,0.30
2022-09-11T15:02:52.024Z,0.50
2022-09-11T15:05:21.644Z,0.40
2022-09-11T15:07:48.992Z,0.60
2022-09-11T15:10:15.778Z,0.40
2022-09-11T15:12:42.848Z,0.40
2022-09-11T15:15:09.661Z,0.52
2022-09-11T15:17:36.463Z,0.32
2022-09-11T15:20:04.768Z,0.40
2022-09-11T15:22:31.506Z,0.45
2022-09-11T15:24:59.899Z,0.47
2022-09-11T15:27:26.430Z,0.50
2022-09-11T15:29:53.267Z,0.52
2022-09-11T15:32:21.090Z,0.63
2022-09-11T15:34:47.888Z,0.43
2022-09-11T15:37:16.809Z,0.30
2022-09-11T15:39:43.740Z,0.90
2022-09-11T15:42:10.423Z,0.70
2022-09-11T15:44:37.478Z,0.50
2022-09-11T15:47:04.633Z,0.40
2022-09-11T15:49:31.765Z,0.50
2022-09-11T15:51:59.703Z,0.50
2022-09-11T15:54:26.960Z,0.40
2022-09-11T15:56:53.558Z,0.40
2022-09-11T15:59:20.653Z,0.52
2022-09-11T16:01:47.471Z,0.50
2022-09-11T16:04:18.585Z,0.52
2022-09-11T16:06:47.794Z,0.40
2022-09-11T16:09:21.301Z,0.40
2022-09-11T16:11:50.372Z,0.45
2022-09-11T16:14:29.403Z,0.60
2022-09-11T16:16:57.909Z,0.60
2022-09-11T16:19:28.282Z,0.40
2022-09-11T16:21:56.991Z,0.50
2022-09-11T16:24:25.726Z,0.50
2022-09-11T16:26:56.458Z,0.57
2022-09-11T16:29:25.533Z,0.45
2022-09-11T16:31:55.402Z,0.80
2022-09-11T16:34:22.151Z,0.50
2022-09-11T16:36:49.850Z,0.60
2022-09-11T16:39:19.466Z,0.50
2022-09-11T16:41:46.024Z,0.40
2022-09-11T16:44:14.402Z,0.60
2022-09-11T16:46:43.885Z,0.80
2022-09-11T16:49:15.820Z,0.60
2022-09-11T16:51:44.010Z,0.60
2022-09-11T16:54:11.349Z,0.60
2022-09-11T16:56:39.062Z,0.60
2022-09-11T16:59:09.095Z,0.57
2022-09-11T17:01:36.870Z,0.40
2022-09-11T17:04:04.391Z,0.70
2022-09-11T17:06:32.079Z,0.60
2022-09-11T17:09:00.239Z,0.43
2022-09-11T17:11:28.361Z,0.40
2022-09-11T17:13:54.904Z,0.52
2022-09-11T17:16:25.667Z,0.45
2022-09-11T17:18:54.366Z,0.52
2022-09-11T17:21:23.987Z,0.68
2022-09-11T17:23:52.523Z,0.65
2022-09-11T17:26:19.044Z,0.60
2022-09-11T17:28:47.675Z,0.65
2022-09-11T17:31:16.267Z,0.60
2022-09-11T17:33:45.417Z,0.65
2022-09-11T17:36:17.232Z,0.70
2022-09-11T17:38:45.591Z,0.47
2022-09-11T17:41:12.358Z,0.80
2022-09-11T17:43:39.110Z,0.80
2022-09-11T17:46:11.042Z,0.50
2022-09-11T17:48:39.598Z,0.70
2022-09-11T17:51:17.822Z,0.90
2022-09-11T17:53:48.558Z,0.85
2022-09-11T17:56:18.051Z,0.77
2022-09-11T17:58:45.422Z,0.70
2022-09-11T18:01:16.786Z,0.90
2022-09-11T18:03:43.755Z,0.80
2022-09-11T18:06:22.148Z,1.73
2022-09-11T18:08:49.614Z,2.63
2022-09-11T18:11:15.998Z,2.30
2022-09-11T18:13:43.839Z,1.80
2022-09-11T18:16:11.594Z,2.03
2022-09-11T18:18:39.400Z,2.40
2022-09-11T18:21:10.493Z,1.50
2022-09-11T18:23:45.143Z,1.70
2022-09-11T18:26:26.957Z,1.67
2022-09-11T18:29:00.086Z,1.80
2022-09-11T18:31:30.243Z,1.15
2022-09-11T18:34:00.067Z,1.52
2022-09-11T18:36:28.966Z,1.60
2022-09-11T18:38:57.542Z,1.40
2022-09-11T18:41:24.539Z,1.50
2022-09-11T18:43:54.952Z,1.83
2022-09-11T18:46:22.049Z,1.35
2022-09-11T18:48:50.250Z,1.40
2022-09-11T18:51:17.879Z,1.40
2022-09-11T18:53:47.402Z,1.40
2022-09-11T18:56:14.217Z,1.50
2022-09-11T18:58:40.946Z,1.27
2022-09-11T19:01:11.415Z,1.30
2022-09-11T19:03:44.441Z,1.33
2022-09-11T19:06:17.774Z,1.23
2022-09-11T19:08:49.167Z,1.40
2022-09-11T19:11:23.071Z,1.20
2022-09-11T19:13:51.657Z,1.30
2022-09-11T19:16:20.428Z,1.40
2022-09-11T19:18:47.883Z,1.30
2022-09-11T19:21:17.766Z,1.55
2022-09-11T19:23:46.773Z,1.40
2022-09-11T19:26:19.277Z,1.38
2022-09-11T19:28:47.057Z,1.15
2022-09-11T19:31:15.288Z,1.42
2022-09-11T19:33:44.385Z,1.45
2022-09-11T19:36:16.887Z,1.25
2022-09-11T19:38:45.499Z,1.40
2022-09-11T19:41:15.090Z,1.60
2022-09-11T19:43:43.648Z,1.60
2022-09-11T19:46:15.914Z,1.48
2022-09-11T19:48:44.194Z,1.42
2022-09-11T19:51:16.118Z,1.50
2022-09-11T19:53:43.148Z,1.50
2022-09-11T19:56:11.098Z,1.25
2022-09-11T19:58:40.848Z,1.50
2022-09-11T20:01:13.447Z,1.48
2022-09-11T20:03:42.651Z,1.27
2022-09-11T20:06:10.624Z,1.63
2022-09-11T20:08:38.019Z,1.25
2022-09-11T20:11:07.062Z,1.60
2022-09-11T20:13:37.437Z,2.20
2022-09-11T20:16:23.185Z,1.67
2022-09-11T20:18:53.746Z,1.70
2022-09-11T20:21:22.002Z,1.98
2022-09-11T20:23:52.630Z,1.90
2022-09-11T20:26:23.276Z,2.20
2022-09-11T20:28:56.910Z,1.98
2022-09-11T20:31:24.490Z,1.80
2022-09-11T20:33:50.949Z,1.73
2022-09-11T20:36:18.472Z,1.95
2022-09-11T20:38:53.415Z,1.92
2022-09-11T20:41:23.129Z,2.05
2022-09-11T20:43:49.964Z,1.70
2022-09-11T20:46:16.439Z,1.73
2022-09-11T20:48:42.865Z,1.95
2022-09-11T20:51:12.534Z,1.70
2022-09-11T20:53:41.699Z,1.70
2022-09-11T20:56:10.026Z,2.00
2022-09-11T20:58:37.109Z,2.30
2022-09-11T21:01:04.760Z,2.15
2022-09-11T21:03:31.478Z,1.73
2022-09-11T21:05:58.351Z,1.95
2022-09-11T21:08:27.322Z,1.70
2022-09-11T21:10:55.774Z,1.70
2022-09-11T21:13:22.147Z,1.83
2022-09-11T21:15:48.513Z,2.28
2022-09-11T21:18:15.465Z,2.38
2022-09-11T21:20:42.917Z,1.60
2022-09-11T21:23:12.398Z,2.20
2022-09-11T21:25:40.195Z,2.10
2022-09-11T21:28:10.557Z,2.00
2022-09-11T21:30:43.182Z,2.00
2022-09-11T21:33:09.562Z,2.15
2022-09-11T21:35:42.371Z,2.10
2022-09-11T21:38:09.748Z,2.42
2022-09-11T21:40:36.138Z,2.30
2022-09-11T21:43:04.343Z,2.28
2022-09-11T21:45:32.819Z,1.98
2022-09-11T21:47:59.239Z,1.90
2022-09-11T21:50:26.647Z,2.33
2022-09-11T21:52:54.508Z,2.15
2022-09-11T21:55:21.446Z,2.30
2022-09-11T21:57:47.887Z,2.28
2022-09-11T22:00:14.839Z,2.40
2022-09-11T22:02:41.273Z,2.00
2022-09-11T22:05:08.888Z,2.10
2022-09-11T22:07:35.409Z,1.80
2022-09-11T22:10:02.278Z,1.67
2022-09-11T22:12:29.867Z,1.80
2022-09-11T22:14:56.239Z,1.92
2022-09-11T22:17:22.897Z,1.70
2022-09-11T22:19:49.293Z,1.88
2022-09-11T22:22:16.127Z,2.00
2022-09-11T22:24:43.716Z,1.90
2022-09-11T22:27:10.234Z,1.98
2022-09-11T22:29:37.314Z,2.00
2022-09-11T22:32:06.981Z,1.70
2022-09-11T22:34:36.872Z,1.92
2022-09-11T22:37:06.142Z,1.90
2022-09-11T22:39:32.526Z,2.05
2022-09-11T22:42:01.851Z,1.90
2022-09-11T22:44:29.266Z,1.60
2022-09-11T22:46:55.678Z,1.95
2022-09-11T22:49:22.164Z,1.70
2022-09-11T22:51:48.599Z,2.03
2022-09-11T22:54:15.646Z,2.30
2022-09-11T22:56:42.441Z,1.95
2022-09-11T22:59:08.851Z,1.92
2022-09-11T23:01:36.454Z,2.08
2022-09-11T23:04:03.842Z,2.08
2022-09-11T23:06:49.192Z,2.22
2022-09-11T23:09:16.935Z,2.15
2022-09-11T23:11:45.236Z,2.10
2022-09-11T23:14:14.320Z,1.90
2022-09-11T23:16:41.121Z,1.90
2022-09-11T23:19:08.642Z,2.08
2022-09-11T23:21:35.893Z,1.50
2022-09-11T23:24:04.654Z,1.75
2022-09-11T23:26:31.130Z,1.55
2022-09-11T23:28:58.005Z,1.60
2022-09-11T23:31:28.732Z,1.50
2022-09-11T23:33:58.005Z,1.40
2022-09-11T23:36:25.013Z,1.55
2022-09-11T23:38:52.110Z,1.50
2022-09-11T23:41:19.205Z,1.30
2022-09-11T23:43:46.073Z,1.20
2022-09-11T23:46:13.234Z,0.90
2022-09-11T23:48:40.247Z,1.13
2022-09-11T23:51:08.546Z,1.23
2022-09-11T23:53:34.922Z,1.30
2022-09-11T23:56:01.468Z,1.10
2022-09-11T23:58:27.859Z,1.40
